Goodwill — DSOW6 — position and weather

sailwx.info

Track history (hours):
 
Tides and Currents Weather Stations Pressure Air Temp Water Temp Dewpoint Dewpoint Depression Visibility Wind Speed Wind Dir Waves Ship Positions

Goodwill

Last reported at 2016-Jan-04 05:33 UTC. Time now 2016-Feb-08 10:06 UTC.
Position S 25°53' E 153°45'.
Warning: this ship's position is 35 days out of date.

Length 269 m; draft 15.1 m.

Type: Cargo ship. MMSI: 440541000.

Date/timePositionNaut miles runAvg speedWind from/ knotsBaromVisibWave heightAir tempDewpointWater temp
2016-Jan-04 05:33S 25°53' E 153°45'9 9.4
2016-Jan-04 04:33S 26°03' E 153°46'10 9.9
2016-Jan-04 03:33S 26°13' E 153°46'10 9.4
2016-Jan-04 02:31S 26°22' E 153°46'19 9.8
2016-Jan-04 00:33S 26°42' E 153°45'9 9.3
2016-Jan-03 23:33S 26°51' E 153°45'9 8.9
2016-Jan-03 22:33S 26°60' E 153°45'9 8.9
2016-Jan-03 21:33S 27°09' E 153°45'10 8.8
2016-Jan-03 20:26S 27°19' E 153°45'8 8.4
2016-Jan-03 19:29S 27°27' E 153°45'8 8.3
2016-Jan-03 18:33S 27°34' E 153°45'8 8.5
2016-Jan-03 17:33S 27°43' E 153°46'9 8.7
2016-Jan-03 16:33S 27°51' E 153°46'9 9.1
2016-Jan-03 15:32S 28°01' E 153°45'270 9.0
2016-Jan-02 09:33S 32°26' E 152°44'8 7.9
2016-Jan-02 08:29S 32°33' E 152°38'8 8.8
2016-Jan-02 07:34S 32°39' E 152°31'9 9.2
2016-Jan-02 06:33S 32°45' E 152°23'9 9.4
2016-Jan-02 05:33S 32°50' E 152°14'10 9.5
2016-Jan-02 04:33S 32°54' E 152°03'10 9.7
2016-Jan-02 03:33S 32°57' E 151°53'6 5.7
2016-Jan-02 02:33S 32°55' E 151°46'2 1.5
2016-Jan-02 01:28S 32°53' E 151°46'0 0.0
2016-Jan-02 00:31S 32°53' E 151°46'0 0.0
2016-Jan-01 23:31S 32°53' E 151°46'0 0.0
2016-Jan-01 22:31S 32°53' E 151°46'0 0.0
2016-Jan-01 21:31S 32°53' E 151°46'0 0.0
2016-Jan-01 20:31S 32°53' E 151°46'0 0.0
2016-Jan-01 19:31S 32°53' E 151°46'0 0.0
2016-Jan-01 18:31S 32°53' E 151°46'0 0.0
2016-Jan-01 17:28S 32°53' E 151°46'0 0.0
2016-Jan-01 16:31S 32°53' E 151°46'0 0.0
2016-Jan-01 15:28S 32°53' E 151°46'0 0.0
2016-Jan-01 14:28S 32°53' E 151°46'0 0.0
2016-Jan-01 13:31S 32°53' E 151°46'0 0.0
2016-Jan-01 12:25S 32°53' E 151°46'0 0.0
2016-Jan-01 11:31S 32°53' E 151°46'0 0.0
2016-Jan-01 10:31S 32°53' E 151°46'0 0.0
2016-Jan-01 09:31S 32°53' E 151°46'0 0.0
2016-Jan-01 08:31S 32°53' E 151°46'0 0.0
2016-Jan-01 07:31S 32°53' E 151°46'0 0.0
2016-Jan-01 06:31S 32°53' E 151°46'0 0.0
2016-Jan-01 05:31S 32°53' E 151°46'0 0.0
2016-Jan-01 04:31S 32°53' E 151°46'0 0.0
2016-Jan-01 03:31S 32°53' E 151°46'0 0.0
2016-Jan-01 02:28S 32°53' E 151°46'0 0.0
2016-Jan-01 01:31S 32°53' E 151°46'0 0.0
2016-Jan-01 00:31S 32°53' E 151°46'0 0.0
2015-Dec-31 23:28S 32°53' E 151°46'0 0.0
2015-Dec-31 22:28S 32°53' E 151°46'0 0.2
2015-Dec-31 21:33S 32°53' E 151°46'6 5.5
2015-Dec-31 20:33S 32°57' E 151°51'6 5.6
2015-Dec-31 19:31S 33°03' E 151°50'8 7.3
2015-Dec-31 18:24S 33°09' E 151°43'0 0.0
2015-Dec-30 17:07S 33°08' E 151°43'10 0.6
2015-Dec-30 01:07S 33°01' E 151°52'611.4
2015-Dec-30 00:33S 32°57' E 151°58'1211.7
2015-Dec-29 23:33S 32°54' E 152°11'1110.9
2015-Dec-29 22:33S 32°47' E 152°21'1110.9
2015-Dec-29 21:33S 32°39' E 152°30'1111.1
2015-Dec-29 20:33S 32°31' E 152°40'271 9.6
2015-Dec-28 16:26S 28°06' E 153°44'19 9.4
2015-Dec-28 14:26S 27°48' E 153°46'9 9.6
2015-Dec-28 13:33S 27°39' E 153°45'18 9.1
2015-Dec-28 11:33S 27°21' E 153°45'9 9.3
2015-Dec-28 10:33S 27°12' E 153°45'9 8.6
2015-Dec-28 09:33S 27°03' E 153°46'11 9.3
2015-Dec-28 08:25S 26°53' E 153°45'  
Track history (hours):
 
Tides and Currents Weather Stations Pressure Air Temp Water Temp Dewpoint Dewpoint Depression Visibility Wind Speed Wind Dir Waves Ship Positions

Goodwill

Last reported at 2016-Jan-04 05:33 UTC. Time now 2016-Feb-08 10:06 UTC.
Position S 25°53' E 153°45'.
Warning: this ship's position is 35 days out of date.

Length 269 m; draft 15.1 m.

Type: Cargo ship. MMSI: 440541000.

Date/timePositionNaut miles runAvg speedWind from/ knotsBaromVisibWave heightAir tempDewpointWater temp
2016-Jan-04 05:33S 25°53' E 153°45'9 9.4
2016-Jan-04 04:33S 26°03' E 153°46'10 9.9
2016-Jan-04 03:33S 26°13' E 153°46'10 9.4
2016-Jan-04 02:31S 26°22' E 153°46'19 9.8
2016-Jan-04 00:33S 26°42' E 153°45'9 9.3
2016-Jan-03 23:33S 26°51' E 153°45'9 8.9
2016-Jan-03 22:33S 26°60' E 153°45'9 8.9
2016-Jan-03 21:33S 27°09' E 153°45'10 8.8
2016-Jan-03 20:26S 27°19' E 153°45'8 8.4
2016-Jan-03 19:29S 27°27' E 153°45'8 8.3
2016-Jan-03 18:33S 27°34' E 153°45'8 8.5
2016-Jan-03 17:33S 27°43' E 153°46'9 8.7
2016-Jan-03 16:33S 27°51' E 153°46'9 9.1
2016-Jan-03 15:32S 28°01' E 153°45'270 9.0
2016-Jan-02 09:33S 32°26' E 152°44'8 7.9
2016-Jan-02 08:29S 32°33' E 152°38'8 8.8
2016-Jan-02 07:34S 32°39' E 152°31'9 9.2
2016-Jan-02 06:33S 32°45' E 152°23'9 9.4
2016-Jan-02 05:33S 32°50' E 152°14'10 9.5
2016-Jan-02 04:33S 32°54' E 152°03'10 9.7
2016-Jan-02 03:33S 32°57' E 151°53'6 5.7
2016-Jan-02 02:33S 32°55' E 151°46'2 1.5
2016-Jan-02 01:28S 32°53' E 151°46'0 0.0
2016-Jan-02 00:31S 32°53' E 151°46'0 0.0
2016-Jan-01 23:31S 32°53' E 151°46'0 0.0
2016-Jan-01 22:31S 32°53' E 151°46'0 0.0
2016-Jan-01 21:31S 32°53' E 151°46'0 0.0
2016-Jan-01 20:31S 32°53' E 151°46'0 0.0
2016-Jan-01 19:31S 32°53' E 151°46'0 0.0
2016-Jan-01 18:31S 32°53' E 151°46'0 0.0
2016-Jan-01 17:28S 32°53' E 151°46'0 0.0
2016-Jan-01 16:31S 32°53' E 151°46'0 0.0
2016-Jan-01 15:28S 32°53' E 151°46'0 0.0
2016-Jan-01 14:28S 32°53' E 151°46'0 0.0
2016-Jan-01 13:31S 32°53' E 151°46'0 0.0
2016-Jan-01 12:25S 32°53' E 151°46'0 0.0
2016-Jan-01 11:31S 32°53' E 151°46'0 0.0
2016-Jan-01 10:31S 32°53' E 151°46'0 0.0
2016-Jan-01 09:31S 32°53' E 151°46'0 0.0
2016-Jan-01 08:31S 32°53' E 151°46'0 0.0
2016-Jan-01 07:31S 32°53' E 151°46'0 0.0
2016-Jan-01 06:31S 32°53' E 151°46'0 0.0
2016-Jan-01 05:31S 32°53' E 151°46'0 0.0
2016-Jan-01 04:31S 32°53' E 151°46'0 0.0
2016-Jan-01 03:31S 32°53' E 151°46'0 0.0
2016-Jan-01 02:28S 32°53' E 151°46'0 0.0
2016-Jan-01 01:31S 32°53' E 151°46'0 0.0
2016-Jan-01 00:31S 32°53' E 151°46'0 0.0
2015-Dec-31 23:28S 32°53' E 151°46'0 0.0
2015-Dec-31 22:28S 32°53' E 151°46'0 0.2
2015-Dec-31 21:33S 32°53' E 151°46'6 5.5
2015-Dec-31 20:33S 32°57' E 151°51'6 5.6
2015-Dec-31 19:31S 33°03' E 151°50'8 7.3
2015-Dec-31 18:24S 33°09' E 151°43'0 0.0
2015-Dec-30 17:07S 33°08' E 151°43'10 0.6
2015-Dec-30 01:07S 33°01' E 151°52'611.4
2015-Dec-30 00:33S 32°57' E 151°58'1211.7
2015-Dec-29 23:33S 32°54' E 152°11'1110.9
2015-Dec-29 22:33S 32°47' E 152°21'1110.9
2015-Dec-29 21:33S 32°39' E 152°30'1111.1
2015-Dec-29 20:33S 32°31' E 152°40'271 9.6
2015-Dec-28 16:26S 28°06' E 153°44'19 9.4
2015-Dec-28 14:26S 27°48' E 153°46'9 9.6
2015-Dec-28 13:33S 27°39' E 153°45'18 9.1
2015-Dec-28 11:33S 27°21' E 153°45'9 9.3
2015-Dec-28 10:33S 27°12' E 153°45'9 8.6
2015-Dec-28 09:33S 27°03' E 153°46'11 9.3
2015-Dec-28 08:25S 26°53' E 153°45'  

Dump ship's entire track history